Time;durP1;ratioP1;P1;durP2;ratioP2;P2;SDS_P1;SDS_P2;PMS_P1;PMS_P2;Temp;Humidity;BMP_temperature;BMP_pressure;BME280_temperature;BME280_humidity;BME280_pressure;Samples;Min_cycle;Max_cycle;Signal;HPM_P1;HPM_P2
2021/07/08 00:01:59;;;;;;;18.40;6.78;;;;;14.20;101043.00;;;;5110816;28;20043;-74
2021/07/08 00:04:26;;;;;;;18.70;5.53;;;;;14.20;101055.00;;;;5111227;28;20114;-75
2021/07/08 00:06:52;;;;;;;10.48;4.32;;;;;14.10;101024.00;;;;5110511;28;20403;-75
2021/07/08 00:09:19;;;;;;;9.90;4.03;;;;;14.10;101046.00;;;;5110638;28;20024;-75
2021/07/08 00:11:45;;;;;;;9.70;4.15;;;;;14.00;101032.00;;;;5092025;28;20486;-75
2021/07/08 00:14:12;;;;;;;7.47;3.42;;;;;13.90;101036.00;;;;5110540;28;20032;-75
2021/07/08 00:16:39;;;;;;;10.88;3.70;;;;;13.80;101063.00;;;;5110447;28;20073;-75
2021/07/08 00:19:07;;;;;;;11.10;4.07;;;;;13.70;101039.00;;;;5110360;28;20024;-75
2021/07/08 00:21:35;;;;;;;13.15;4.40;;;;;13.60;101073.00;;;;5109659;28;20114;-74
2021/07/08 00:24:02;;;;;;;14.50;4.35;;;;;13.50;101055.00;;;;5109598;28;20027;-75
2021/07/08 00:26:29;;;;;;;14.63;4.85;;;;;13.50;101065.00;;;;5110251;28;20035;-74
2021/07/08 00:28:56;;;;;;;10.82;4.55;;;;;13.50;101065.00;;;;5110967;28;20549;-75
2021/07/08 00:31:22;;;;;;;12.68;4.70;;;;;13.50;101047.00;;;;5110421;28;20034;-75
2021/07/08 00:33:49;;;;;;;9.82;3.88;;;;;13.30;101053.00;;;;5109369;28;20062;-77
2021/07/08 00:36:16;;;;;;;7.70;3.42;;;;;13.30;101074.00;;;;5109856;28;20054;-75
2021/07/08 00:38:43;;;;;;;13.63;3.92;;;;;13.30;101063.00;;;;5109357;28;20038;-75
2021/07/08 00:41:09;;;;;;;9.25;3.60;;;;;13.30;101045.00;;;;5109476;28;20550;-75
2021/07/08 00:43:36;;;;;;;6.15;3.85;;;;;13.30;101057.00;;;;5109912;28;20023;-75
2021/07/08 00:46:04;;;;;;;7.15;4.50;;;;;13.20;101053.00;;;;5109448;28;20059;-75
2021/07/08 00:48:31;;;;;;;7.10;4.25;;;;;13.20;101037.00;;;;5109564;28;20031;-75
2021/07/08 00:50:58;;;;;;;7.80;4.45;;;;;13.10;101047.00;;;;5108857;28;20448;-75
2021/07/08 00:53:25;;;;;;;12.13;4.93;;;;;13.10;101027.00;;;;5110177;28;20114;-75
2021/07/08 00:56:01;;;;;;;8.77;4.63;;;;;13.00;101034.00;;;;5106935;28;20055;-75
2021/07/08 00:58:28;;;;;;;9.27;4.50;;;;;12.90;101056.00;;;;5109118;28;20031;-75
2021/07/08 01:00:55;;;;;;;8.98;4.40;;;;;12.90;101064.00;;;;5109436;28;20027;-75
2021/07/08 01:03:23;;;;;;;9.38;4.28;;;;;12.90;101072.00;;;;5109073;28;20047;-74
2021/07/08 01:05:52;;;;;;;10.07;4.53;;;;;12.70;101073.00;;;;5109436;28;20134;-75
2021/07/08 01:08:20;;;;;;;10.73;4.88;;;;;12.60;101087.00;;;;5108932;28;20104;-75
2021/07/08 01:10:49;;;;;;;14.25;4.82;;;;;12.70;101052.00;;;;5109075;28;20020;-77
2021/07/08 01:13:18;;;;;;;13.18;5.82;;;;;12.60;101064.00;;;;5109523;28;20034;-77
2021/07/08 01:15:44;;;;;;;13.35;6.88;;;;;12.50;101071.00;;;;5109195;28;20015;-77
2021/07/08 01:18:12;;;;;;;11.05;4.82;;;;;12.50;101081.00;;;;5109321;28;20110;-76
2021/07/08 01:20:39;;;;;;;14.50;5.53;;;;;12.50;101095.00;;;;5109348;28;20468;-76
2021/07/08 01:23:06;;;;;;;9.57;5.28;;;;;12.50;101084.00;;;;5109337;28;20028;-77
2021/07/08 01:25:36;;;;;;;23.42;7.43;;;;;12.50;101085.00;;;;5109506;28;20027;-76
2021/07/08 01:28:07;;;;;;;18.73;10.50;;;;;12.40;101060.00;;;;5109045;28;20020;-77
2021/07/08 01:30:34;;;;;;;16.23;9.35;;;;;12.40;101081.00;;;;5108851;28;20036;-76
2021/07/08 01:33:01;;;;;;;13.63;6.00;;;;;12.40;101100.00;;;;5108722;28;20039;-77
2021/07/08 01:35:28;;;;;;;16.88;7.25;;;;;12.40;101081.00;;;;5108738;28;20093;-77
2021/07/08 01:37:55;;;;;;;15.77;7.10;;;;;12.40;101083.00;;;;5108807;28;20027;-76
2021/07/08 01:40:22;;;;;;;15.25;5.50;;;;;12.40;101093.00;;;;5090682;28;20031;-75
2021/07/08 01:42:49;;;;;;;16.48;6.18;;;;;12.50;101089.00;;;;5109332;28;20023;-76
2021/07/08 01:45:17;;;;;;;12.40;6.22;;;;;12.40;101071.00;;;;5108230;28;20080;-76
2021/07/08 01:47:45;;;;;;;15.65;6.30;;;;;12.30;101096.00;;;;5108498;28;20036;-76
2021/07/08 01:50:15;;;;;;;15.45;6.47;;;;;12.30;101071.00;;;;5108723;28;20027;-75
2021/07/08 01:52:42;;;;;;;10.95;5.47;;;;;12.30;101099.00;;;;5108247;28;20123;-76
2021/07/08 01:55:09;;;;;;;11.38;5.25;;;;;12.30;101074.00;;;;5108554;28;20102;-76
2021/07/08 01:57:41;;;;;;;12.32;5.43;;;;;12.40;101082.00;;;;5108450;28;20051;-76
2021/07/08 02:00:10;;;;;;;8.98;4.57;;;;;12.50;101069.00;;;;5108804;28;20106;-76
2021/07/08 02:02:37;;;;;;;10.77;4.65;;;;;12.60;101092.00;;;;5108592;28;20056;-76
2021/07/08 02:05:05;;;;;;;9.40;4.80;;;;;12.60;101092.00;;;;5108093;28;20050;-76
2021/07/08 02:07:32;;;;;;;9.50;4.40;;;;;12.70;101077.00;;;;5108354;28;20058;-77
2021/07/08 02:09:58;;;;;;;7.55;4.70;;;;;12.60;101083.00;;;;5107833;28;20420;-77
2021/07/08 02:12:25;;;;;;;9.90;5.13;;;;;12.60;101096.00;;;;5107597;28;20026;-76
2021/07/08 02:14:51;;;;;;;8.98;4.43;;;;;12.60;101090.00;;;;5108607;28;20123;-76
2021/07/08 02:17:18;;;;;;;7.40;5.10;;;;;12.60;101089.00;;;;5108399;28;20031;-76
2021/07/08 02:19:45;;;;;;;15.07;6.43;;;;;12.70;101070.00;;;;5108998;28;20027;-75
2021/07/08 02:22:11;;;;;;;12.60;6.72;;;;;12.70;101066.00;;;;5108352;28;20046;-75
2021/07/08 02:24:38;;;;;;;11.63;6.70;;;;;12.60;101084.00;;;;5107705;28;20038;-76
2021/07/08 02:27:05;;;;;;;10.07;6.63;;;;;12.60;101095.00;;;;5108234;28;20031;-76
2021/07/08 02:29:31;;;;;;;14.25;6.20;;;;;12.70;101102.00;;;;5107931;28;20487;-76
2021/07/08 02:31:58;;;;;;;9.00;5.13;;;;;12.70;101108.00;;;;5108376;28;20032;-76
2021/07/08 02:34:24;;;;;;;7.10;4.82;;;;;12.70;101109.00;;;;5108368;28;20036;-76
2021/07/08 02:36:51;;;;;;;6.85;4.80;;;;;12.80;101101.00;;;;5107579;28;20074;-75
2021/07/08 02:39:18;;;;;;;8.15;4.10;;;;;12.80;101093.00;;;;5107571;28;20034;-76
2021/07/08 02:41:44;;;;;;;4.82;3.88;;;;;12.90;101074.00;;;;5107553;28;20110;-75
2021/07/08 02:44:11;;;;;;;5.82;4.20;;;;;12.90;101066.00;;;;5107507;28;20028;-75
2021/07/08 02:46:38;;;;;;;8.93;4.20;;;;;12.90;101089.00;;;;5107871;28;20032;-75
2021/07/08 02:49:04;;;;;;;7.28;3.95;;;;;12.90;101087.00;;;;5107601;28;20020;-75
2021/07/08 02:51:31;;;;;;;9.43;4.50;;;;;12.90;101084.00;;;;5107927;28;20029;-75
2021/07/08 02:53:57;;;;;;;8.52;4.68;;;;;13.00;101083.00;;;;5088919;28;20513;-76
2021/07/08 02:56:24;;;;;;;8.48;4.68;;;;;13.00;101070.00;;;;5107602;28;20068;-76
2021/07/08 02:58:50;;;;;;;7.60;5.22;;;;;13.10;101066.00;;;;5107915;28;20023;-76
2021/07/08 03:01:17;;;;;;;4.43;4.03;;;;;13.10;101082.00;;;;5107172;28;20023;-75
2021/07/08 03:03:44;;;;;;;7.00;4.07;;;;;13.10;101082.00;;;;5107002;28;20647;-75
2021/07/08 03:06:11;;;;;;;7.65;4.03;;;;;13.10;101051.00;;;;5107186;28;20034;-75
2021/07/08 03:08:37;;;;;;;7.30;3.53;;;;;13.00;101064.00;;;;5107414;28;20372;-76
2021/07/08 03:11:04;;;;;;;7.80;3.85;;;;;13.00;101047.00;;;;5107397;28;20023;-75
2021/07/08 03:13:31;;;;;;;6.50;3.28;;;;;13.00;101079.00;;;;5089078;28;20134;-74
2021/07/08 03:15:58;;;;;;;7.47;3.50;;;;;13.00;101074.00;;;;5107438;28;20443;-75
2021/07/08 03:18:25;;;;;;;5.55;3.50;;;;;12.90;101063.00;;;;5107163;28;20024;-75
2021/07/08 03:20:51;;;;;;;6.60;3.80;;;;;12.80;101050.00;;;;5107134;28;20035;-75
2021/07/08 03:23:18;;;;;;;4.55;3.60;;;;;12.80;101069.00;;;;5106875;28;20454;-75
2021/07/08 03:25:44;;;;;;;10.15;3.90;;;;;12.80;101058.00;;;;5107363;28;20067;-75
2021/07/08 03:28:12;;;;;;;5.15;3.38;;;;;12.90;101072.00;;;;5088464;28;20027;-74
2021/07/08 03:30:38;;;;;;;5.63;3.75;;;;;12.90;101080.00;;;;5107064;28;20502;-75
2021/07/08 03:33:06;;;;;;;5.20;3.05;;;;;13.00;101061.00;;;;5107418;28;20054;-75
2021/07/08 03:35:34;;;;;;;5.60;3.60;;;;;13.00;101072.00;;;;5106886;28;20491;-75
2021/07/08 03:38:01;;;;;;;6.13;3.33;;;;;13.00;101069.00;;;;5107208;28;20027;-75
2021/07/08 03:40:29;;;;;;;5.43;3.28;;;;;13.10;101071.00;;;;5107164;28;20051;-75
2021/07/08 03:42:56;;;;;;;8.07;3.20;;;;;13.10;101092.00;;;;5106883;28;20020;-75
2021/07/08 03:45:23;;;;;;;3.55;3.20;;;;;13.10;101070.00;;;;5107692;28;20095;-75
2021/07/08 03:47:50;;;;;;;4.78;3.05;;;;;13.10;101106.00;;;;5106908;28;20024;-75
2021/07/08 03:50:17;;;;;;;4.78;3.15;;;;;13.10;101067.00;;;;5088538;28;20487;-75
2021/07/08 03:52:45;;;;;;;7.43;3.47;;;;;13.20;101060.00;;;;5106635;28;20031;-75
2021/07/08 03:55:14;;;;;;;6.80;3.50;;;;;13.20;101082.00;;;;5106734;28;20076;-75
2021/07/08 03:57:52;;;;;;;5.80;2.78;;;;;13.20;101068.00;;;;5106486;28;20032;-75
2021/07/08 04:00:37;;;;;;;7.95;3.60;;;;;13.20;101089.00;;;;5106644;28;20031;-75
2021/07/08 04:03:09;;;;;;;6.50;3.97;;;;;13.20;101078.00;;;;5106718;28;20059;-75
2021/07/08 04:05:37;;;;;;;4.68;3.58;;;;;13.20;101070.00;;;;5107295;28;20047;-75
2021/07/08 04:08:04;;;;;;;9.32;3.95;;;;;13.20;101088.00;;;;5107167;28;20552;-75
2021/07/08 04:10:32;;;;;;;6.03;4.65;;;;;13.20;101065.00;;;;5107131;28;20031;-75
2021/07/08 04:12:58;;;;;;;6.70;3.75;;;;;13.20;101078.00;;;;5106710;28;20150;-75
2021/07/08 04:15:25;;;;;;;6.88;4.45;;;;;13.30;101069.00;;;;5106771;28;20024;-75
2021/07/08 04:17:52;;;;;;;7.55;4.03;;;;;13.20;101076.00;;;;5106808;28;20024;-75
2021/07/08 04:20:21;;;;;;;14.32;4.82;;;;;13.20;101095.00;;;;5106727;28;20030;-75
2021/07/08 04:22:49;;;;;;;7.05;4.18;;;;;13.20;101067.00;;;;5106583;28;20034;-76
2021/07/08 04:25:16;;;;;;;6.55;4.93;;;;;13.20;101067.00;;;;5106492;28;20030;-76
2021/07/08 04:27:44;;;;;;;5.53;4.30;;;;;13.20;101063.00;;;;5105883;28;20027;-75
2021/07/08 04:30:12;;;;;;;5.25;3.60;;;;;13.20;101071.00;;;;5106634;28;20031;-76
2021/07/08 04:32:40;;;;;;;5.65;3.60;;;;;13.20;101059.00;;;;5091986;28;20039;-76
2021/07/08 04:35:10;;;;;;;5.50;3.67;;;;;13.20;101054.00;;;;5110734;28;20032;-75
2021/07/08 04:37:41;;;;;;;8.73;4.35;;;;;13.20;101107.00;;;;5110403;28;20031;-75
2021/07/08 04:40:10;;;;;;;5.20;4.00;;;;;13.30;101104.00;;;;5109561;28;20062;-75
2021/07/08 04:42:37;;;;;;;5.70;3.60;;;;;13.30;101079.00;;;;5110274;28;20037;-75
2021/07/08 04:45:06;;;;;;;7.93;3.47;;;;;13.30;101091.00;;;;5109551;28;20500;-76
2021/07/08 04:47:33;;;;;;;6.00;3.38;;;;;13.30;101115.00;;;;5109497;28;20583;-76
2021/07/08 04:50:00;;;;;;;6.05;3.20;;;;;13.30;101111.00;;;;5109743;28;20063;-77
2021/07/08 04:52:26;;;;;;;10.35;3.30;;;;;13.40;101089.00;;;;5109328;28;20036;-76
2021/07/08 04:54:53;;;;;;;6.53;3.50;;;;;13.30;101082.00;;;;5109836;28;20039;-76
2021/07/08 04:57:19;;;;;;;6.82;3.50;;;;;13.30;101082.00;;;;5110210;28;20055;-76
2021/07/08 04:59:47;;;;;;;7.90;3.47;;;;;13.30;101084.00;;;;5110191;28;20034;-74
2021/07/08 05:02:15;;;;;;;7.13;3.85;;;;;13.40;101087.00;;;;5092262;28;20061;-77
2021/07/08 05:04:42;;;;;;;8.25;3.50;;;;;13.30;101069.00;;;;5109518;28;20032;-74
2021/07/08 05:07:11;;;;;;;8.43;3.50;;;;;13.30;101087.00;;;;5109335;28;20028;-77
2021/07/08 05:09:38;;;;;;;6.65;3.10;;;;;13.30;101053.00;;;;5108834;28;20498;-76
2021/07/08 05:12:06;;;;;;;5.80;3.40;;;;;13.20;101069.00;;;;5109641;28;20023;-76
2021/07/08 05:14:34;;;;;;;5.68;3.90;;;;;13.30;101053.00;;;;5109049;28;20038;-77
2021/07/08 05:17:01;;;;;;;5.43;3.58;;;;;13.20;101081.00;;;;5091618;28;20023;-77
2021/07/08 05:19:29;;;;;;;4.53;3.63;;;;;13.20;101053.00;;;;5109406;28;20032;-76
2021/07/08 05:21:56;;;;;;;8.52;3.65;;;;;13.20;101060.00;;;;5108726;28;20093;-76
2021/07/08 05:24:24;;;;;;;6.95;4.15;;;;;13.10;101058.00;;;;5109779;28;20042;-77
2021/07/08 05:26:51;;;;;;;6.25;3.90;;;;;13.10;101058.00;;;;5109300;28;20081;-76
2021/07/08 05:29:18;;;;;;;6.35;4.10;;;;;13.00;101078.00;;;;5090832;28;20027;-76
2021/07/08 05:31:44;;;;;;;5.63;3.88;;;;;13.10;101063.00;;;;5117461;28;20043;-76
2021/07/08 05:34:11;;;;;;;8.88;3.55;;;;;13.10;101072.00;;;;5123599;28;20717;-77
2021/07/08 05:36:37;;;;;;;5.70;3.80;;;;;13.10;101055.00;;;;5120177;28;20028;-76
2021/07/08 05:39:05;;;;;;;8.80;6.13;;;;;13.10;101054.00;;;;5109402;28;20085;-76
2021/07/08 05:41:32;;;;;;;12.30;6.00;;;;;13.10;101072.00;;;;5108427;28;20071;-76
2021/07/08 05:43:58;;;;;;;9.23;5.22;;;;;13.10;101039.00;;;;5108191;28;20032;-77
2021/07/08 05:46:26;;;;;;;10.32;4.35;;;;;13.10;101046.00;;;;5109147;28;20502;-77
2021/07/08 05:48:55;;;;;;;6.88;5.28;;;;;13.10;101056.00;;;;5108961;28;20035;-76
2021/07/08 05:51:21;;;;;;;8.55;5.40;;;;;13.20;101055.00;;;;5108262;28;20451;-76
2021/07/08 05:53:48;;;;;;;9.40;5.53;;;;;13.10;101042.00;;;;5108850;28;20376;-76
2021/07/08 05:56:15;;;;;;;8.27;6.18;;;;;13.10;101042.00;;;;5108847;28;20036;-77
2021/07/08 05:58:41;;;;;;;9.27;6.22;;;;;13.10;101034.00;;;;5108524;28;20028;-76
2021/07/08 06:01:08;;;;;;;9.80;5.80;;;;;13.10;101025.00;;;;5108249;28;20491;-76
2021/07/08 06:03:34;;;;;;;8.27;4.07;;;;;13.10;101014.00;;;;5107767;28;20056;-77
2021/07/08 06:06:01;;;;;;;8.52;3.85;;;;;13.00;101024.00;;;;5108540;28;20462;-76
2021/07/08 06:08:27;;;;;;;5.75;3.83;;;;;12.90;101010.00;;;;5108930;28;20079;-76
2021/07/08 06:10:55;;;;;;;7.25;4.45;;;;;12.90;101036.00;;;;5090502;28;20031;-77
2021/07/08 06:13:21;;;;;;;9.60;4.90;;;;;12.90;101028.00;;;;5108204;28;20031;-76
2021/07/08 06:15:48;;;;;;;13.52;5.00;;;;;12.80;101033.00;;;;5108992;28;20066;-76
2021/07/08 06:18:14;;;;;;;6.70;5.03;;;;;12.80;101013.00;;;;5107683;28;20088;-76
2021/07/08 06:20:41;;;;;;;9.15;5.03;;;;;12.70;101024.00;;;;5108386;28;20387;-76
2021/07/08 06:23:07;;;;;;;8.10;4.63;;;;;12.60;101013.00;;;;5108523;28;20073;-76
2021/07/08 06:25:34;;;;;;;7.90;4.55;;;;;12.50;101007.00;;;;5089971;28;20076;-75
2021/07/08 06:28:01;;;;;;;9.93;5.32;;;;;12.40;101028.00;;;;5107941;28;20032;-75
2021/07/08 06:30:27;;;;;;;7.45;4.82;;;;;12.40;101026.00;;;;5107777;28;20440;-75
2021/07/08 06:32:54;;;;;;;6.85;4.90;;;;;12.30;101029.00;;;;5107459;28;20104;-76
2021/07/08 06:35:20;;;;;;;7.95;5.15;;;;;12.20;101002.00;;;;5107846;28;20102;-76
2021/07/08 06:37:47;;;;;;;6.90;5.00;;;;;12.10;101012.00;;;;5107649;28;20479;-75
2021/07/08 06:40:17;;;;;;;9.23;5.45;;;;;12.00;101002.00;;;;5108605;28;20083;-76
2021/07/08 06:42:44;;;;;;;8.48;4.95;;;;;11.90;101023.00;;;;5107453;28;20110;-76
2021/07/08 06:45:12;;;;;;;10.68;5.10;;;;;11.80;101009.00;;;;5107608;28;20063;-76
2021/07/08 06:47:44;;;;;;;14.32;5.90;;;;;11.80;101018.00;;;;5107758;28;20406;-76
2021/07/08 06:50:10;;;;;;;;;;;;;11.70;101035.00;;;;5108462;28;20038;-73
2021/07/08 06:52:37;;;;;;;7.53;4.88;;;;;11.70;101031.00;;;;5107314;28;19919;-76
2021/07/08 06:55:06;;;;;;;8.18;5.78;;;;;11.60;101044.00;;;;5106583;28;20057;-76
2021/07/08 06:57:34;;;;;;;9.65;6.15;;;;;11.50;101026.00;;;;5107297;28;20114;-76
2021/07/08 07:00:00;;;;;;;11.65;6.47;;;;;11.40;101039.00;;;;5107608;28;20024;-76
2021/07/08 07:02:27;;;;;;;8.18;6.03;;;;;11.30;101045.00;;;;5107738;28;20054;-76
2021/07/08 07:04:54;;;;;;;8.00;5.53;;;;;11.20;101038.00;;;;5107142;28;20384;-76
2021/07/08 07:07:20;;;;;;;9.52;6.70;;;;;11.10;101027.00;;;;5107528;28;20406;-76
2021/07/08 07:09:47;;;;;;;7.13;5.63;;;;;11.10;101000.00;;;;5107426;28;20562;-75
2021/07/08 07:12:14;;;;;;;9.40;6.40;;;;;11.10;101022.00;;;;5107074;28;20031;-76
2021/07/08 07:14:40;;;;;;;8.23;6.38;;;;;11.00;100993.00;;;;5106736;28;20036;-76
2021/07/08 07:17:07;;;;;;;9.80;6.57;;;;;11.00;101017.00;;;;5107028;28;20038;-76
2021/07/08 07:19:33;;;;;;;14.75;6.65;;;;;10.90;100992.00;;;;5107061;28;20038;-76
2021/07/08 07:22:01;;;;;;;12.90;7.05;;;;;10.90;100997.00;;;;5107345;28;20077;-75
2021/07/08 07:24:29;;;;;;;11.77;6.78;;;;;10.80;100984.00;;;;5107459;28;20054;-75
2021/07/08 07:26:57;;;;;;;11.95;6.72;;;;;10.80;101020.00;;;;5106934;28;20390;-76
2021/07/08 07:29:24;;;;;;;9.63;6.45;;;;;10.80;100993.00;;;;5088577;28;20066;-75
2021/07/08 07:31:50;;;;;;;6.88;6.10;;;;;10.80;100993.00;;;;5107325;28;20104;-76
2021/07/08 07:34:17;;;;;;;9.82;6.35;;;;;10.70;101000.00;;;;5107634;28;20043;-76
2021/07/08 07:36:43;;;;;;;8.32;5.90;;;;;10.60;101007.00;;;;5106939;28;20042;-76
2021/07/08 07:39:10;;;;;;;7.97;5.57;;;;;10.60;100992.00;;;;5107441;28;20020;-76
2021/07/08 07:41:36;;;;;;;12.65;6.00;;;;;10.60;100972.00;;;;5107623;28;20070;-76
2021/07/08 07:44:03;;;;;;;10.93;5.95;;;;;10.60;100998.00;;;;5088831;28;20038;-76
2021/07/08 07:46:30;;;;;;;9.88;5.53;;;;;10.60;100987.00;;;;5107272;28;20396;-76
2021/07/08 07:48:56;;;;;;;9.07;6.47;;;;;10.60;100972.00;;;;5106884;28;20067;-76
2021/07/08 07:51:23;;;;;;;8.13;5.30;;;;;10.60;100980.00;;;;5088764;28;20062;-76
2021/07/08 07:53:50;;;;;;;10.77;6.15;;;;;10.50;101002.00;;;;5106647;28;20398;-76
2021/07/08 07:56:16;;;;;;;9.27;6.00;;;;;10.40;101001.00;;;;5106961;28;20031;-75
2021/07/08 07:58:43;;;;;;;10.18;5.82;;;;;10.40;101001.00;;;;5107041;28;20032;-76
2021/07/08 08:01:10;;;;;;;10.43;6.70;;;;;10.40;100986.00;;;;5107040;28;20074;-76
2021/07/08 08:03:39;;;;;;;11.77;8.77;;;;;10.50;100987.00;;;;5106322;28;20051;-75
2021/07/08 08:08:50;;;;;;;12.30;7.18;;;;;10.50;100976.00;;;;5110654;28;20419;-76
2021/07/08 08:11:21;;;;;;;9.23;6.38;;;;;10.40;100998.00;;;;5110525;28;20028;-75
2021/07/08 08:13:47;;;;;;;9.20;6.40;;;;;10.40;100984.00;;;;5110648;28;20378;-75
2021/07/08 08:16:14;;;;;;;9.02;6.53;;;;;10.40;101006.00;;;;5110613;28;20034;-76
2021/07/08 08:18:41;;;;;;;9.35;6.22;;;;;10.40;100998.00;;;;5110364;28;20491;-76
2021/07/08 08:21:07;;;;;;;6.78;5.82;;;;;10.40;100988.00;;;;5110474;28;20031;-76
2021/07/08 08:23:36;;;;;;;8.65;6.20;;;;;10.40;100971.00;;;;5110294;28;20067;-76
2021/07/08 08:26:03;;;;;;;10.77;5.90;;;;;10.40;100975.00;;;;5110802;28;20062;-75
2021/07/08 08:28:29;;;;;;;8.00;5.57;;;;;10.40;101022.00;;;;5110605;28;20528;-76
2021/07/08 08:30:56;;;;;;;10.88;5.40;;;;;10.40;101007.00;;;;5110612;28;20031;-76
2021/07/08 08:33:23;;;;;;;7.78;5.45;;;;;10.30;100992.00;;;;5111088;28;20119;-76
2021/07/08 08:35:50;;;;;;;12.50;5.60;;;;;10.30;101020.00;;;;5110370;28;20073;-76
2021/07/08 08:38:17;;;;;;;7.57;5.18;;;;;10.20;101020.00;;;;5092275;28;20394;-76
2021/07/08 08:40:45;;;;;;;7.60;5.75;;;;;10.20;101000.00;;;;5091831;28;20039;-75
2021/07/08 08:43:12;;;;;;;9.32;6.07;;;;;10.30;101021.00;;;;5110172;28;20433;-76
2021/07/08 08:45:40;;;;;;;10.80;7.80;;;;;10.20;101031.00;;;;5109863;28;20028;-76
2021/07/08 08:48:10;;;;;;;15.63;9.25;;;;;10.20;101041.00;;;;5109814;28;20058;-76
2021/07/08 08:50:48;;;;;;;27.40;14.20;;;;;10.20;101039.00;;;;5109718;28;20931;-76
2021/07/08 08:53:17;;;;;;;14.05;9.77;;;;;10.20;101039.00;;;;5108645;28;20031;-75
2021/07/08 08:55:45;;;;;;;9.20;5.82;;;;;10.20;101050.00;;;;5092523;28;20040;-76
2021/07/08 08:58:20;;;;;;;10.63;5.57;;;;;10.20;101023.00;;;;5109385;28;20019;-76
2021/07/08 09:00:57;;;;;;;13.40;6.45;;;;;10.30;101030.00;;;;5109724;28;20458;-76
2021/07/08 09:03:25;;;;;;;8.63;5.43;;;;;10.30;101028.00;;;;5109375;28;20457;-76
2021/07/08 09:06:07;;;;;;;14.10;6.00;;;;;10.10;101040.00;;;;5109727;28;20031;-75
2021/07/08 09:08:35;;;;;;;16.33;6.47;;;;;10.00;101050.00;;;;5109616;28;20323;-77
2021/07/08 09:11:02;;;;;;;10.43;6.53;;;;;10.00;101061.00;;;;5109128;28;20115;-76
2021/07/08 09:14:03;;;;;;;11.73;6.72;;;;;10.00;101032.00;;;;5109219;28;20132;-76
2021/07/08 09:16:32;;;;;;;9.70;6.93;;;;;10.00;101033.00;;;;5108835;28;20036;-76
2021/07/08 09:19:03;;;;;;;11.55;6.07;;;;;10.00;101032.00;;;;5089563;28;20449;-76
2021/07/08 09:21:32;;;;;;;12.85;7.07;;;;;10.00;101064.00;;;;5109392;28;20080;-76
2021/07/08 09:24:14;;;;;;;11.07;7.95;;;;;10.00;101071.00;;;;5109894;28;20102;-76
2021/07/08 09:27:09;;;;;;;;;;;;;10.00;101063.00;;;;5091172;28;20495;-76
2021/07/08 09:29:43;;;;;;;10.38;6.90;;;;;9.80;101041.00;;;;5106820;28;20394;-76
2021/07/08 09:32:20;;;;;;;10.63;7.50;;;;;9.80;101052.00;;;;5109354;28;20375;-76
2021/07/08 09:34:48;;;;;;;11.75;7.45;;;;;9.80;101052.00;;;;5108857;28;20050;-76
2021/07/08 09:37:18;;;;;;;13.10;7.55;;;;;9.80;101072.00;;;;5109053;28;20026;-76
2021/07/08 09:39:53;;;;;;;15.45;7.88;;;;;9.70;101081.00;;;;5109133;28;20031;-76
2021/07/08 09:42:46;;;;;;;12.63;8.00;;;;;9.70;101077.00;;;;5108385;28;20551;-75
2021/07/08 09:45:15;;;;;;;11.80;6.75;;;;;9.70;101043.00;;;;5109071;28;20037;-76
2021/07/08 09:47:45;;;;;;;8.85;6.93;;;;;9.70;101078.00;;;;5107616;28;20055;-76
2021/07/08 09:50:36;;;;;;;14.52;7.68;;;;;9.60;101090.00;;;;5108533;28;20020;-76
2021/07/08 09:53:06;;;;;;;15.60;7.28;;;;;9.60;101070.00;;;;5097630;28;20078;-76
2021/07/08 09:59:03;;;;;;;15.30;7.88;;;;;9.60;101104.00;;;;5107336;28;20043;-76
2021/07/08 10:01:30;;;;;;;14.75;8.68;;;;;9.60;101074.00;;;;5107735;28;20043;-75
2021/07/08 10:03:57;;;;;;;17.50;8.73;;;;;9.50;101081.00;;;;5107637;28;20422;-76
2021/07/08 10:06:24;;;;;;;18.98;8.77;;;;;9.50;101107.00;;;;5106910;28;20035;-76
2021/07/08 10:08:51;;;;;;;13.43;7.35;;;;;9.60;101125.00;;;;5106651;28;20506;-76
2021/07/08 10:11:23;;;;;;;14.77;7.45;;;;;9.60;101118.00;;;;5107267;28;20024;-76
2021/07/08 10:13:50;;;;;;;15.43;11.52;;;;;9.50;101090.00;;;;5089639;28;20039;-76
2021/07/08 10:16:18;;;;;;;15.18;9.73;;;;;9.60;101124.00;;;;5107595;28;20070;-76
2021/07/08 10:18:49;;;;;;;19.45;16.08;;;;;9.60;101107.00;;;;5089060;28;20122;-76
2021/07/08 10:21:18;;;;;;;18.17;12.05;;;;;9.60;101131.00;;;;5090350;28;20594;-76
2021/07/08 10:23:46;;;;;;;20.83;11.85;;;;;9.60;101127.00;;;;5108252;28;20032;-76
2021/07/08 10:26:13;;;;;;;14.32;10.15;;;;;9.60;101119.00;;;;5088900;28;20039;-76
2021/07/08 10:28:43;;;;;;;16.55;12.07;;;;;9.60;101143.00;;;;5107026;28;20394;-76
2021/07/08 10:31:15;;;;;;;20.75;14.10;;;;;9.60;101139.00;;;;5089840;28;20036;-76
2021/07/08 10:34:02;;;;;;;23.10;20.60;;;;;9.60;101127.00;;;;5107411;28;20070;-76
2021/07/08 10:36:31;;;;;;;32.22;25.77;;;;;9.70;101131.00;;;;5092715;28;20043;-76
2021/07/08 10:39:05;;;;;;;37.10;32.05;;;;;9.70;101123.00;;;;5107878;28;20062;-76
2021/07/08 10:41:31;;;;;;;47.58;31.42;;;;;9.70;101157.00;;;;5107695;28;20049;-77
2021/07/08 10:43:58;;;;;;;26.27;23.60;;;;;9.70;101138.00;;;;5107366;28;20521;-77
2021/07/08 10:46:35;;;;;;;31.65;24.90;;;;;9.70;101145.00;;;;5087644;28;20036;-77
2021/07/08 10:49:13;;;;;;;27.52;24.05;;;;;9.80;101144.00;;;;5088984;28;20038;-77
2021/07/08 10:51:44;;;;;;;30.85;27.50;;;;;9.90;101141.00;;;;5107027;28;20028;-76
2021/07/08 10:54:28;;;;;;;43.97;29.00;;;;;10.10;101155.00;;;;5089948;28;20042;-76
2021/07/08 10:57:02;;;;;;;29.77;23.42;;;;;10.70;101139.00;;;;5107523;28;20031;-76
2021/07/08 10:59:45;;;;;;;28.92;20.85;;;;;11.30;101103.00;;;;5108482;28;20063;-77
2021/07/08 11:02:48;;;;;;;18.80;14.95;;;;;12.50;101115.00;;;;5089336;28;20142;-77
2021/07/08 11:05:57;;;;;;;15.32;11.02;;;;;12.60;101111.00;;;;5107140;28;20038;-77
2021/07/08 11:08:46;;;;;;;18.00;10.27;;;;;12.50;101129.00;;;;5096907;28;20747;-77
2021/07/08 11:11:33;;;;;;;16.20;9.85;;;;;12.90;101102.00;;;;5106968;28;20062;-75
2021/07/08 11:14:20;;;;;;;11.27;8.10;;;;;13.90;101088.00;;;;5092805;28;20914;-76
2021/07/08 11:17:01;;;;;;;19.15;8.30;;;;;14.30;101096.00;;;;5093265;28;20042;-75
2021/07/08 11:19:28;;;;;;;17.48;7.93;;;;;14.40;101109.00;;;;5107265;28;20571;-75
2021/07/08 11:22:04;;;;;;;9.30;6.97;;;;;13.70;101164.00;;;;5106857;28;20035;-76
2021/07/08 11:24:42;;;;;;;12.63;6.30;;;;;14.50;101096.00;;;;5107888;28;20027;-76
2021/07/08 11:27:16;;;;;;;12.15;5.47;;;;;16.10;101065.00;;;;5109340;28;20038;-76
2021/07/08 11:29:48;;;;;;;20.90;6.97;;;;;16.40;101035.00;;;;5107045;28;20028;-76
2021/07/08 11:32:28;;;;;;;11.45;6.38;;;;;17.50;101066.00;;;;5107315;28;20036;-76
2021/07/08 11:35:05;;;;;;;11.95;5.68;;;;;18.30;101052.00;;;;5107371;28;20023;-76
2021/07/08 11:40:05;;;;;;;45.05;8.90;;;;;19.30;101026.00;;;;5107575;28;20031;-76
2021/07/08 11:42:35;;;;;;;26.55;10.05;;;;;19.50;101007.00;;;;5097892;28;20043;-75
2021/07/08 11:45:10;;;;;;;19.27;5.63;;;;;19.80;100997.00;;;;5112621;28;20019;-74
2021/07/08 11:47:45;;;;;;;19.20;8.75;;;;;20.10;101012.00;;;;5111243;28;20790;-76
2021/07/08 11:50:28;;;;;;;15.52;4.95;;;;;20.40;101055.00;;;;5111461;28;20118;-75
2021/07/08 11:53:08;;;;;;;9.15;3.97;;;;;20.50;101035.00;;;;5110660;28;20027;-75
2021/07/08 11:55:37;;;;;;;17.02;5.28;;;;;20.30;101021.00;;;;5110586;28;20486;-75
2021/07/08 11:58:04;;;;;;;91.90;11.23;;;;;20.60;101036.00;;;;5110039;28;20088;-76
2021/07/08 12:00:35;;;;;;;9.35;3.90;;;;;21.00;101039.00;;;;5111060;28;20027;-76
2021/07/08 12:03:03;;;;;;;12.32;4.63;;;;;21.00;101074.00;;;;5110898;28;20048;-76
2021/07/08 12:05:30;;;;;;;6.78;3.97;;;;;21.10;101055.00;;;;5110633;28;20032;-76
2021/07/08 12:08:03;;;;;;;15.93;4.35;;;;;21.40;101091.00;;;;5111129;28;20035;-76
2021/07/08 12:10:32;;;;;;;13.02;4.55;;;;;21.50;101117.00;;;;5110986;28;20096;-75
2021/07/08 12:12:58;;;;;;;9.70;4.38;;;;;22.00;101082.00;;;;5110858;28;20076;-75
2021/07/08 12:15:26;;;;;;;10.65;4.70;;;;;22.20;101073.00;;;;5111384;28;20032;-76
2021/07/08 12:17:56;;;;;;;15.98;4.45;;;;;22.50;101106.00;;;;5110761;28;20057;-74
2021/07/08 12:20:23;;;;;;;66.50;8.85;;;;;22.20;101101.00;;;;5110682;28;20086;-74
2021/07/08 12:23:02;;;;;;;8.45;4.00;;;;;22.60;101088.00;;;;5110416;28;20036;-77